createdAt,value
2018-07-03T00:02:10.198Z,1.83
2018-07-03T00:04:39.760Z,1.57
2018-07-03T00:07:09.256Z,1.73
2018-07-03T00:09:38.966Z,1.87
2018-07-03T00:12:08.567Z,1.77
2018-07-03T00:14:38.376Z,1.67
2018-07-03T00:17:12.930Z,2.00
2018-07-03T00:19:42.518Z,1.97
2018-07-03T00:22:12.329Z,2.20
2018-07-03T00:24:42.697Z,1.70
2018-07-03T00:27:11.876Z,1.77
2018-07-03T00:29:41.210Z,2.17
2018-07-03T00:32:11.593Z,1.53
2018-07-03T00:34:40.809Z,1.87
2018-07-03T00:37:10.646Z,2.20
2018-07-03T00:39:40.060Z,1.73
2018-07-03T00:42:09.468Z,1.80
2018-07-03T00:44:38.888Z,2.13
2018-07-03T00:47:08.682Z,2.20
2018-07-03T00:49:38.869Z,2.00
2018-07-03T00:52:08.573Z,2.13
2018-07-03T00:54:37.947Z,1.87
2018-07-03T00:57:09.979Z,2.37
2018-07-03T00:59:50.241Z,1.67
2018-07-03T01:02:19.803Z,1.97
2018-07-03T01:04:50.555Z,2.00
2018-07-03T01:07:21.036Z,1.67
2018-07-03T01:09:50.410Z,2.10
2018-07-03T01:12:19.912Z,1.90
2018-07-03T01:14:50.089Z,2.23
2018-07-03T01:17:19.128Z,1.50
2018-07-03T01:19:48.672Z,2.00
2018-07-03T01:22:18.148Z,1.83
2018-07-03T01:24:47.771Z,2.00
2018-07-03T01:27:17.249Z,1.90
2018-07-03T01:29:46.769Z,1.77
2018-07-03T01:32:17.031Z,1.90
2018-07-03T01:34:46.389Z,2.00
2018-07-03T01:37:15.781Z,1.97
2018-07-03T01:39:45.730Z,2.07
2018-07-03T01:42:15.239Z,1.77
2018-07-03T01:44:44.598Z,2.13
2018-07-03T01:47:14.141Z,2.10
2018-07-03T01:49:43.662Z,2.10
2018-07-03T01:52:13.187Z,2.00
2018-07-03T01:54:42.711Z,2.00
2018-07-03T01:57:12.828Z,2.10
2018-07-03T01:59:42.419Z,2.00
2018-07-03T02:02:11.721Z,1.80
2018-07-03T02:04:42.178Z,2.13
2018-07-03T02:07:12.616Z,2.20
2018-07-03T02:09:42.146Z,2.07
2018-07-03T02:12:11.548Z,1.97
2018-07-03T02:14:41.027Z,1.97
2018-07-03T02:17:11.345Z,1.90
2018-07-03T02:19:40.606Z,2.33
2018-07-03T02:22:10.290Z,2.23
2018-07-03T02:24:39.802Z,1.80
2018-07-03T02:27:09.519Z,2.27
2018-07-03T02:29:38.929Z,2.17
2018-07-03T02:32:08.445Z,2.27
2018-07-03T02:34:38.062Z,2.20
2018-07-03T02:37:07.456Z,1.80
2018-07-03T02:39:36.959Z,2.33
2018-07-03T02:42:06.790Z,1.90
2018-07-03T02:44:36.520Z,2.00
2018-07-03T02:47:06.061Z,2.43
2018-07-03T02:49:35.516Z,2.03
2018-07-03T02:52:05.081Z,2.00
2018-07-03T02:54:34.597Z,2.27
2018-07-03T02:57:03.916Z,2.00
2018-07-03T02:59:33.539Z,2.03
2018-07-03T03:02:03.998Z,2.00
2018-07-03T03:04:33.319Z,2.00
2018-07-03T03:07:02.700Z,2.47
2018-07-03T03:09:32.487Z,1.97
2018-07-03T03:12:01.799Z,2.10
2018-07-03T03:14:31.062Z,1.93
2018-07-03T03:17:00.503Z,2.03
2018-07-03T03:19:30.117Z,1.77
2018-07-03T03:21:59.019Z,2.13
2018-07-03T03:24:28.537Z,2.10
2018-07-03T03:26:58.118Z,2.30
2018-07-03T03:29:27.986Z,2.13
2018-07-03T03:31:57.513Z,2.00
2018-07-03T03:34:26.943Z,1.80
2018-07-03T03:36:56.916Z,2.13
2018-07-03T03:39:26.460Z,2.03
2018-07-03T03:41:57.148Z,1.70
2018-07-03T03:44:26.535Z,2.10
2018-07-03T03:46:55.696Z,1.80
2018-07-03T03:49:25.029Z,1.90
2018-07-03T03:51:55.378Z,2.03
2018-07-03T03:54:24.902Z,2.10
2018-07-03T03:56:54.663Z,2.00
2018-07-03T03:59:23.856Z,2.03
2018-07-03T04:01:53.559Z,2.20
2018-07-03T04:04:23.801Z,2.03
2018-07-03T04:06:53.979Z,1.93
2018-07-03T04:09:23.466Z,2.30
2018-07-03T04:11:53.088Z,2.17
2018-07-03T04:14:23.583Z,2.70
2018-07-03T04:16:53.031Z,1.70
2018-07-03T04:19:22.521Z,2.07
2018-07-03T04:21:52.038Z,1.70
2018-07-03T04:24:21.646Z,1.60
2018-07-03T04:26:51.290Z,1.87
2018-07-03T04:29:20.738Z,1.80
2018-07-03T04:31:50.353Z,2.30
2018-07-03T04:34:19.776Z,1.70
2018-07-03T04:36:49.931Z,1.83
2018-07-03T04:39:19.296Z,1.87
2018-07-03T04:41:48.582Z,1.60
2018-07-03T04:44:17.976Z,1.90
2018-07-03T04:46:47.377Z,1.80
2018-07-03T04:49:16.981Z,1.90
2018-07-03T04:51:46.918Z,1.70
2018-07-03T04:54:16.547Z,2.20
2018-07-03T04:56:45.740Z,1.40
2018-07-03T04:59:15.262Z,1.93
2018-07-03T05:01:44.888Z,1.87
2018-07-03T05:04:14.616Z,1.90
2018-07-03T05:06:44.189Z,2.30
2018-07-03T05:09:13.846Z,2.07
2018-07-03T05:11:43.220Z,2.00
2018-07-03T05:14:13.357Z,2.00
2018-07-03T05:16:42.789Z,2.00
2018-07-03T05:19:13.229Z,2.03
2018-07-03T05:21:42.679Z,2.73
2018-07-03T05:24:12.429Z,2.30
2018-07-03T05:26:41.909Z,2.00
2018-07-03T05:29:11.099Z,1.90
2018-07-03T05:31:40.454Z,1.97
2018-07-03T05:34:09.910Z,2.00
2018-07-03T05:36:39.289Z,2.10
2018-07-03T05:39:11.050Z,1.80
2018-07-03T05:41:40.900Z,2.03
2018-07-03T05:44:10.512Z,2.33
2018-07-03T05:46:40.600Z,2.20
2018-07-03T05:49:10.389Z,2.10
2018-07-03T05:51:39.727Z,1.93
2018-07-03T05:54:08.924Z,2.40
2018-07-03T05:56:38.480Z,2.00
2018-07-03T05:59:08.169Z,1.90
2018-07-03T06:01:37.536Z,1.90
2018-07-03T06:04:06.829Z,2.37
2018-07-03T06:06:36.667Z,1.67
2018-07-03T06:09:08.651Z,1.90
2018-07-03T06:11:38.200Z,2.00
2018-07-03T06:14:07.953Z,1.70
2018-07-03T06:16:37.654Z,1.90
2018-07-03T06:19:08.370Z,2.00
2018-07-03T06:21:38.201Z,1.80
2018-07-03T06:24:07.637Z,2.10
2018-07-03T06:26:38.519Z,1.80
2018-07-03T06:29:08.010Z,2.60
2018-07-03T06:31:37.493Z,2.70
2018-07-03T06:34:07.232Z,2.10
2018-07-03T06:36:36.388Z,1.90
2018-07-03T06:39:09.365Z,1.90
2018-07-03T06:41:39.066Z,2.10
2018-07-03T06:44:09.682Z,2.10
2018-07-03T06:46:39.389Z,2.17
2018-07-03T06:49:09.058Z,2.20
2018-07-03T06:51:38.608Z,1.90
2018-07-03T06:54:08.544Z,2.60
2018-07-03T06:56:37.717Z,2.20
2018-07-03T06:59:07.453Z,2.23
2018-07-03T07:01:37.159Z,2.07
2018-07-03T07:04:07.458Z,2.27
2018-07-03T07:06:36.668Z,2.80
2018-07-03T07:09:08.746Z,2.70
2018-07-03T07:11:38.410Z,2.30
2018-07-03T07:14:08.247Z,2.80
2018-07-03T07:16:37.998Z,2.90
2018-07-03T07:19:07.400Z,2.47
2018-07-03T07:21:36.769Z,2.33
2018-07-03T07:24:06.230Z,2.60
2018-07-03T07:26:36.490Z,2.60
2018-07-03T07:29:06.299Z,2.30
2018-07-03T07:31:35.989Z,2.43
2018-07-03T07:34:05.107Z,2.27
2018-07-03T07:36:34.764Z,2.70
2018-07-03T07:39:06.739Z,2.40
2018-07-03T07:41:36.582Z,2.47
2018-07-03T07:44:07.500Z,2.47
2018-07-03T07:46:37.471Z,2.13
2018-07-03T07:49:07.770Z,2.60
2018-07-03T07:51:37.027Z,2.97
2018-07-03T07:54:06.783Z,2.40
2018-07-03T07:56:36.353Z,2.53
2018-07-03T07:59:05.691Z,2.40
2018-07-03T08:01:35.217Z,2.30
2018-07-03T08:04:05.004Z,2.30
2018-07-03T08:06:34.520Z,2.40
2018-07-03T08:09:05.577Z,2.30
2018-07-03T08:11:35.318Z,2.30
2018-07-03T08:14:05.320Z,2.17
2018-07-03T08:16:36.397Z,2.30
2018-07-03T08:19:05.910Z,2.27
2018-07-03T08:21:35.609Z,2.27
2018-07-03T08:24:04.703Z,2.47
2018-07-03T08:26:34.114Z,1.83
2018-07-03T08:29:03.852Z,2.60
2018-07-03T08:31:33.189Z,2.30
2018-07-03T08:34:02.392Z,2.03
2018-07-03T08:36:31.656Z,2.17
2018-07-03T08:39:00.929Z,2.50
2018-07-03T08:41:32.601Z,1.90
2018-07-03T08:44:02.487Z,2.20
2018-07-03T08:46:32.937Z,2.40
2018-07-03T08:49:02.210Z,2.20
2018-07-03T08:51:31.738Z,2.10
2018-07-03T08:54:01.018Z,2.60
2018-07-03T08:56:30.797Z,2.20
2018-07-03T08:59:00.459Z,2.20
2018-07-03T09:01:30.228Z,1.93
2018-07-03T09:03:59.459Z,2.50
2018-07-03T09:06:29.033Z,1.90
2018-07-03T09:08:58.469Z,1.90
2018-07-03T09:11:27.816Z,1.80
2018-07-03T09:13:57.168Z,2.07
2018-07-03T09:16:26.711Z,1.90
2018-07-03T09:18:56.057Z,1.87
2018-07-03T09:21:25.591Z,2.07
2018-07-03T09:23:56.242Z,1.93
2018-07-03T09:26:26.656Z,1.67
2018-07-03T09:28:56.203Z,1.93
2018-07-03T09:31:25.893Z,2.20
2018-07-03T09:33:55.617Z,1.70
2018-07-03T09:36:25.050Z,1.40
2018-07-03T09:38:54.381Z,2.10
2018-07-03T09:41:23.969Z,1.60
2018-07-03T09:43:53.343Z,1.80
2018-07-03T09:46:22.776Z,1.40
2018-07-03T09:48:52.709Z,1.70
2018-07-03T09:51:22.093Z,1.63
2018-07-03T09:53:51.598Z,1.67
2018-07-03T09:56:20.863Z,1.57
2018-07-03T09:58:50.209Z,2.03
2018-07-03T10:01:21.818Z,1.70
2018-07-03T10:03:51.160Z,1.37
2018-07-03T10:06:21.656Z,1.80
2018-07-03T10:08:50.941Z,1.30
2018-07-03T10:11:20.013Z,1.47
2018-07-03T10:13:49.466Z,1.80
2018-07-03T10:16:18.632Z,1.70
2018-07-03T10:18:49.008Z,1.60
2018-07-03T10:21:18.656Z,1.97
2018-07-03T10:23:48.583Z,1.63
2018-07-03T10:26:19.029Z,1.70
2018-07-03T10:28:48.470Z,1.50
2018-07-03T10:31:18.082Z,2.00
2018-07-03T10:33:47.553Z,1.90
2018-07-03T10:36:17.192Z,2.00
2018-07-03T10:38:46.539Z,2.07
2018-07-03T10:41:16.059Z,2.07
2018-07-03T10:43:45.930Z,2.17
2018-07-03T10:46:15.078Z,2.17
2018-07-03T10:48:45.832Z,2.07
2018-07-03T10:51:15.295Z,1.97
2018-07-03T10:53:44.733Z,2.10
2018-07-03T10:56:13.820Z,1.70
2018-07-03T10:58:43.376Z,1.77
2018-07-03T11:01:13.017Z,1.80
2018-07-03T11:03:42.120Z,1.60
2018-07-03T11:06:12.498Z,1.90
2018-07-03T11:08:41.730Z,1.90
2018-07-03T11:11:10.990Z,1.70
2018-07-03T11:13:40.473Z,2.20
2018-07-03T11:16:10.021Z,1.70
2018-07-03T11:18:39.489Z,1.93
2018-07-03T11:21:08.681Z,2.13
2018-07-03T11:23:39.027Z,2.00
2018-07-03T11:26:08.239Z,1.90
2018-07-03T11:28:38.637Z,2.23
2018-07-03T11:31:08.307Z,2.53
2018-07-03T11:33:37.722Z,2.60
2018-07-03T11:36:07.325Z,2.40
2018-07-03T11:38:36.832Z,2.07
2018-07-03T11:41:06.957Z,2.30
2018-07-03T11:43:36.420Z,2.20
2018-07-03T11:46:06.149Z,2.17
2018-07-03T11:48:35.866Z,2.50
2018-07-03T11:51:05.142Z,1.80
2018-07-03T11:53:34.582Z,2.07
2018-07-03T11:56:03.900Z,2.10
2018-07-03T11:58:33.352Z,2.27
2018-07-03T12:01:02.868Z,1.93
2018-07-03T12:03:32.148Z,2.03
2018-07-03T12:06:01.433Z,2.33
2018-07-03T12:08:30.879Z,2.07
2018-07-03T12:11:00.089Z,2.23
2018-07-03T12:13:29.452Z,1.90
2018-07-03T12:15:58.912Z,1.70
2018-07-03T12:18:33.612Z,2.27
2018-07-03T12:21:11.859Z,1.57
2018-07-03T12:23:41.078Z,2.03
2018-07-03T12:26:10.509Z,2.00
2018-07-03T12:28:40.010Z,2.10
2018-07-03T12:31:09.488Z,2.30
2018-07-03T12:33:39.353Z,2.20
2018-07-03T12:36:10.192Z,2.23
2018-07-03T12:38:39.843Z,2.12
2018-07-03T12:41:09.529Z,1.90
2018-07-03T12:43:39.085Z,1.60
2018-07-03T12:46:08.419Z,2.00
2018-07-03T12:48:38.210Z,2.00
2018-07-03T12:51:08.488Z,1.87
2018-07-03T12:53:39.632Z,1.97
2018-07-03T12:56:09.090Z,2.07
2018-07-03T12:58:39.449Z,1.97
2018-07-03T13:01:09.898Z,1.97
2018-07-03T13:03:39.600Z,1.70
2018-07-03T13:06:09.105Z,1.97
2018-07-03T13:08:38.346Z,1.60
2018-07-03T13:11:07.568Z,1.83
2018-07-03T13:13:36.785Z,1.60
2018-07-03T13:16:05.884Z,1.60
2018-07-03T13:18:34.977Z,1.60
2018-07-03T13:21:04.179Z,1.87
2018-07-03T13:23:33.900Z,1.60
2018-07-03T13:26:03.060Z,1.60
2018-07-03T13:28:32.400Z,1.83
2018-07-03T13:31:02.148Z,1.90
2018-07-03T13:33:31.399Z,1.50
2018-07-03T13:36:00.500Z,1.50
2018-07-03T13:38:29.720Z,1.57
2018-07-03T13:40:58.864Z,1.50
2018-07-03T13:43:28.079Z,1.40
2018-07-03T13:45:57.533Z,1.60
2018-07-03T13:48:26.778Z,1.43
2018-07-03T13:50:56.040Z,1.50
2018-07-03T13:53:25.672Z,1.40
2018-07-03T13:55:55.094Z,1.50
2018-07-03T13:58:24.694Z,1.50
2018-07-03T14:00:54.018Z,1.30
2018-07-03T14:03:23.443Z,1.30
2018-07-03T14:05:52.836Z,1.30
2018-07-03T14:08:22.344Z,1.30
2018-07-03T14:10:52.168Z,1.47
2018-07-03T14:13:22.548Z,1.23
2018-07-03T14:15:51.813Z,1.50
2018-07-03T14:18:25.303Z,1.30
2018-07-03T14:20:56.896Z,1.37
2018-07-03T14:23:27.160Z,1.27
2018-07-03T14:25:56.868Z,1.40
2018-07-03T14:28:26.446Z,1.63
2018-07-03T14:30:55.960Z,1.60
2018-07-03T14:33:26.494Z,1.60
2018-07-03T14:35:56.334Z,1.40
2018-07-03T14:38:26.050Z,1.83
2018-07-03T14:40:55.521Z,1.10
2018-07-03T14:43:24.895Z,1.43
2018-07-03T14:45:54.456Z,1.43
2018-07-03T14:48:24.019Z,1.40
2018-07-03T14:50:53.548Z,1.70
2018-07-03T14:53:22.844Z,1.30
2018-07-03T14:55:52.199Z,1.40
2018-07-03T14:58:21.950Z,1.40
2018-07-03T15:00:51.449Z,1.27
2018-07-03T15:03:20.806Z,1.50
2018-07-03T15:05:50.242Z,1.57
2018-07-03T15:08:19.821Z,1.60
2018-07-03T15:10:49.277Z,1.10
2018-07-03T15:13:18.897Z,1.20
2018-07-03T15:15:48.017Z,1.37
2018-07-03T15:18:17.643Z,1.43
2018-07-03T15:20:46.946Z,1.60
2018-07-03T15:23:16.528Z,1.40
2018-07-03T15:25:46.050Z,1.37
2018-07-03T15:28:15.566Z,1.50
2018-07-03T15:30:45.852Z,1.40
2018-07-03T15:33:15.339Z,1.40
2018-07-03T15:35:45.262Z,1.53
2018-07-03T15:38:14.699Z,1.40
2018-07-03T15:40:44.489Z,1.50
2018-07-03T15:43:13.866Z,1.50
2018-07-03T15:45:43.472Z,1.60
2018-07-03T15:48:13.051Z,1.40
2018-07-03T15:50:42.510Z,1.20
2018-07-03T15:53:11.822Z,1.40
2018-07-03T15:55:41.281Z,1.37
2018-07-03T15:58:10.609Z,1.40
2018-07-03T16:00:40.217Z,1.40
2018-07-03T16:03:20.647Z,1.40
2018-07-03T16:06:29.105Z,1.20
2018-07-03T16:09:16.048Z,1.13
2018-07-03T16:11:45.708Z,1.20
2018-07-03T16:14:15.238Z,1.37
2018-07-03T16:16:44.707Z,1.30
2018-07-03T16:19:19.348Z,1.00
2018-07-03T16:21:48.498Z,1.20
2018-07-03T16:24:18.078Z,1.10
2018-07-03T16:26:47.739Z,1.40
2018-07-03T16:29:17.317Z,1.07
2018-07-03T16:31:46.988Z,1.10
2018-07-03T16:34:17.053Z,1.10
2018-07-03T16:36:46.816Z,1.20
2018-07-03T16:39:16.143Z,1.27
2018-07-03T16:41:46.328Z,1.00
2018-07-03T16:44:15.960Z,1.20
2018-07-03T16:46:45.382Z,1.20
2018-07-03T16:49:16.104Z,1.20
2018-07-03T16:51:45.798Z,1.00
2018-07-03T16:54:15.590Z,1.20
2018-07-03T16:56:45.391Z,1.00
2018-07-03T16:59:14.769Z,1.20
2018-07-03T17:01:44.477Z,1.10
2018-07-03T17:04:14.036Z,1.23
2018-07-03T17:06:43.941Z,1.13
2018-07-03T17:09:13.791Z,1.30
2018-07-03T17:11:43.262Z,1.13
2018-07-03T17:14:12.882Z,1.20
2018-07-03T17:16:42.674Z,1.30
2018-07-03T17:19:18.515Z,1.20
2018-07-03T17:21:47.960Z,1.10
2018-07-03T17:24:17.931Z,1.00
2018-07-03T17:26:47.369Z,1.17
2018-07-03T17:29:16.804Z,1.40
2018-07-03T17:31:46.711Z,1.83
2018-07-03T17:34:16.024Z,1.63
2018-07-03T17:36:45.901Z,1.20
2018-07-03T17:39:17.889Z,1.20
2018-07-03T17:41:52.071Z,1.23
2018-07-03T17:44:38.869Z,1.40
2018-07-03T17:47:08.649Z,1.47
2018-07-03T17:49:38.238Z,1.20
2018-07-03T17:52:07.919Z,1.20
2018-07-03T17:54:37.550Z,1.70
2018-07-03T17:57:07.122Z,1.20
2018-07-03T17:59:36.630Z,1.33
2018-07-03T18:02:06.423Z,1.30
2018-07-03T18:04:36.157Z,1.10
2018-07-03T18:07:05.630Z,1.30
2018-07-03T18:09:35.117Z,1.30
2018-07-03T18:12:05.168Z,1.30
2018-07-03T18:14:34.913Z,1.10
2018-07-03T18:17:04.579Z,1.27
2018-07-03T18:19:38.974Z,1.13
2018-07-03T18:22:08.252Z,1.50
2018-07-03T18:24:38.261Z,1.23
2018-07-03T18:27:07.741Z,1.40
2018-07-03T18:29:37.052Z,1.17
2018-07-03T18:32:06.257Z,1.53
2018-07-03T18:34:35.793Z,1.40
2018-07-03T18:37:05.238Z,1.47
2018-07-03T18:39:34.690Z,1.57
2018-07-03T18:42:04.250Z,1.57
2018-07-03T18:44:33.919Z,1.30
2018-07-03T18:47:03.713Z,1.03
2018-07-03T18:49:33.200Z,1.70
2018-07-03T18:52:02.888Z,1.20
2018-07-03T18:54:32.577Z,1.00
2018-07-03T18:57:02.127Z,1.03
2018-07-03T18:59:31.371Z,1.50
2018-07-03T19:02:00.816Z,1.10
2018-07-03T19:04:30.522Z,1.10
2018-07-03T19:07:00.760Z,1.17
2018-07-03T19:09:30.191Z,1.40
2018-07-03T19:12:00.044Z,1.30
2018-07-03T19:14:29.377Z,1.20
2018-07-03T19:16:59.214Z,1.60
2018-07-03T19:19:29.589Z,1.30
2018-07-03T19:21:58.969Z,1.37
2018-07-03T19:24:28.446Z,1.03
2018-07-03T19:26:58.118Z,1.30
2018-07-03T19:29:27.948Z,1.27
2018-07-03T19:31:57.418Z,1.13
2018-07-03T19:34:27.086Z,1.20
2018-07-03T19:36:56.679Z,1.23
2018-07-03T19:39:26.438Z,1.50
2018-07-03T19:41:56.145Z,1.40
2018-07-03T19:44:25.940Z,1.30
2018-07-03T19:46:55.543Z,1.10
2018-07-03T19:49:24.867Z,1.20
2018-07-03T19:51:54.783Z,1.13
2018-07-03T19:54:24.345Z,1.30
2018-07-03T19:56:53.639Z,1.93
2018-07-03T19:59:23.826Z,1.53
2018-07-03T20:01:53.383Z,1.57
2018-07-03T20:04:23.158Z,1.30
2018-07-03T20:06:52.917Z,1.40
2018-07-03T20:09:22.580Z,1.27
2018-07-03T20:11:52.017Z,1.10
2018-07-03T20:14:22.127Z,1.70
2018-07-03T20:16:51.720Z,1.73
2018-07-03T20:19:21.342Z,1.73
2018-07-03T20:21:50.706Z,1.80
2018-07-03T20:24:20.082Z,3.60
2018-07-03T20:26:49.859Z,5.17
2018-07-03T20:29:19.196Z,6.40
2018-07-03T20:31:48.772Z,5.67
2018-07-03T20:34:18.018Z,5.20
2018-07-03T20:36:47.661Z,5.17
2018-07-03T20:39:17.462Z,5.50
2018-07-03T20:41:46.974Z,5.33
2018-07-03T20:44:16.696Z,4.83
2018-07-03T20:46:46.933Z,3.43
2018-07-03T20:49:16.505Z,2.63
2018-07-03T20:51:46.300Z,2.10
2018-07-03T20:54:15.829Z,2.00
2018-07-03T20:56:45.533Z,2.77
2018-07-03T20:59:14.909Z,2.30
2018-07-03T21:01:44.517Z,2.20
2018-07-03T21:04:14.325Z,2.10
2018-07-03T21:06:43.559Z,2.00
2018-07-03T21:09:13.067Z,2.07
2018-07-03T21:11:42.694Z,1.97
2018-07-03T21:14:12.167Z,2.10
2018-07-03T21:16:41.037Z,1.77
2018-07-03T21:19:10.566Z,1.80
2018-07-03T21:21:40.350Z,1.70
2018-07-03T21:24:10.607Z,1.97
2018-07-03T21:26:40.242Z,2.13
2018-07-03T21:29:09.761Z,2.13
2018-07-03T21:31:39.239Z,2.43
2018-07-03T21:34:08.330Z,2.30
2018-07-03T21:36:37.781Z,2.27
2018-07-03T21:39:08.049Z,2.30
2018-07-03T21:41:37.619Z,2.20
2018-07-03T21:44:07.225Z,1.87
2018-07-03T21:46:36.580Z,1.50
2018-07-03T21:49:06.106Z,1.53
2018-07-03T21:51:35.803Z,1.70
2018-07-03T21:54:05.144Z,1.80
2018-07-03T21:56:34.640Z,1.73
2018-07-03T21:59:04.281Z,1.67
2018-07-03T22:01:33.723Z,1.83
2018-07-03T22:04:03.220Z,1.37
2018-07-03T22:06:32.876Z,1.60
2018-07-03T22:09:02.747Z,1.40
2018-07-03T22:11:32.292Z,2.00
2018-07-03T22:14:01.884Z,1.60
2018-07-03T22:16:31.253Z,1.50
2018-07-03T22:19:01.037Z,1.53
2018-07-03T22:21:31.050Z,1.60
2018-07-03T22:24:00.557Z,1.90
2018-07-03T22:26:30.441Z,1.50
2018-07-03T22:29:00.027Z,1.43
2018-07-03T22:31:30.577Z,1.60
2018-07-03T22:33:59.808Z,1.70
2018-07-03T22:36:29.460Z,1.30
2018-07-03T22:38:59.414Z,1.40
2018-07-03T22:41:29.137Z,1.50
2018-07-03T22:43:58.716Z,1.40
2018-07-03T22:46:29.290Z,1.47
2018-07-03T22:48:59.162Z,1.40
2018-07-03T22:51:28.442Z,1.50
2018-07-03T22:53:58.209Z,1.70
2018-07-03T22:56:27.276Z,2.10
2018-07-03T22:58:56.842Z,1.60
2018-07-03T23:01:26.255Z,1.77
2018-07-03T23:03:56.150Z,1.70
2018-07-03T23:06:25.636Z,1.60
2018-07-03T23:08:55.998Z,2.03
2018-07-03T23:11:25.754Z,1.60
2018-07-03T23:13:55.267Z,1.90
2018-07-03T23:16:25.069Z,1.50
2018-07-03T23:18:54.749Z,1.40
2018-07-03T23:21:24.601Z,1.63
2018-07-03T23:23:53.811Z,1.80
2018-07-03T23:26:24.143Z,1.70
2018-07-03T23:28:53.836Z,1.23
2018-07-03T23:31:24.131Z,1.47
2018-07-03T23:33:53.345Z,1.50
2018-07-03T23:36:23.256Z,1.60
2018-07-03T23:38:52.690Z,1.57
2018-07-03T23:41:22.222Z,1.43
2018-07-03T23:43:51.829Z,1.83
2018-07-03T23:46:31.979Z,1.57
2018-07-03T23:49:06.353Z,1.30
2018-07-03T23:51:46.826Z,2.00
2018-07-03T23:54:27.780Z,1.73
2018-07-03T23:57:07.827Z,1.70
2018-07-03T23:59:47.946Z,1.80
